sensor_id;sensor_type;location;lat;lon;timestamp;pressure;altitude;pressure_sealevel;temperature;humidity
47366;BME280;33105;47.964;7.982;2023-02-12T00:02:01;98567.06;;;-1.29;78.15
47366;BME280;33105;47.964;7.982;2023-02-12T00:05:03;98561.44;;;-1.26;78.84
47366;BME280;33105;47.964;7.982;2023-02-12T00:08:04;98566.34;;;-1.22;78.95
47366;BME280;33105;47.964;7.982;2023-02-12T00:11:14;98582.13;;;-1.09;80.13
47366;BME280;33105;47.964;7.982;2023-02-12T00:14:16;98561.25;;;-1.15;80.44
47366;BME280;33105;47.964;7.982;2023-02-12T00:17:17;98555.31;;;-1.19;80.26
47366;BME280;33105;47.964;7.982;2023-02-12T00:20:19;98552.63;;;-1.09;80.83
47366;BME280;33105;47.964;7.982;2023-02-12T00:23:20;98550.66;;;-1.07;81.10
47366;BME280;33105;47.964;7.982;2023-02-12T00:26:22;98550.09;;;-1.11;81.32
47366;BME280;33105;47.964;7.982;2023-02-12T00:29:25;98551.09;;;-1.12;81.76
47366;BME280;33105;47.964;7.982;2023-02-12T00:32:27;98562.66;;;-1.11;81.41
47366;BME280;33105;47.964;7.982;2023-02-12T00:35:28;98567.75;;;-1.18;81.82
47366;BME280;33105;47.964;7.982;2023-02-12T00:38:30;98569.59;;;-1.18;81.56
47366;BME280;33105;47.964;7.982;2023-02-12T00:41:31;98565.09;;;-1.27;81.73
47366;BME280;33105;47.964;7.982;2023-02-12T00:44:32;98571.31;;;-1.37;82.25
47366;BME280;33105;47.964;7.982;2023-02-12T00:47:34;98573.72;;;-1.33;82.04
47366;BME280;33105;47.964;7.982;2023-02-12T00:50:35;98573.13;;;-1.37;81.31
47366;BME280;33105;47.964;7.982;2023-02-12T00:53:36;98566.94;;;-1.38;80.99
47366;BME280;33105;47.964;7.982;2023-02-12T00:56:38;98565.41;;;-1.59;81.10
47366;BME280;33105;47.964;7.982;2023-02-12T00:59:39;98572.16;;;-1.84;81.99
47366;BME280;33105;47.964;7.982;2023-02-12T01:02:42;98576.38;;;-1.72;82.40
47366;BME280;33105;47.964;7.982;2023-02-12T01:05:43;98571.03;;;-1.62;81.01
47366;BME280;33105;47.964;7.982;2023-02-12T01:08:44;98562.00;;;-1.71;82.36
47366;BME280;33105;47.964;7.982;2023-02-12T01:11:46;98567.78;;;-1.66;81.85
47366;BME280;33105;47.964;7.982;2023-02-12T01:14:47;98567.50;;;-1.63;81.85
47366;BME280;33105;47.964;7.982;2023-02-12T01:17:52;98562.72;;;-1.69;82.47
47366;BME280;33105;47.964;7.982;2023-02-12T01:20:53;98561.88;;;-1.79;83.55
47366;BME280;33105;47.964;7.982;2023-02-12T01:23:57;98556.09;;;-1.65;83.24
47366;BME280;33105;47.964;7.982;2023-02-12T01:26:58;98554.25;;;-1.64;84.23
47366;BME280;33105;47.964;7.982;2023-02-12T01:30:00;98551.84;;;-1.48;84.42
47366;BME280;33105;47.964;7.982;2023-02-12T01:33:01;98548.03;;;-1.46;83.79
47366;BME280;33105;47.964;7.982;2023-02-12T01:36:03;98556.06;;;-1.46;84.58
47366;BME280;33105;47.964;7.982;2023-02-12T01:39:05;98539.41;;;-1.30;84.61
47366;BME280;33105;47.964;7.982;2023-02-12T01:42:06;98545.19;;;-1.25;84.41
47366;BME280;33105;47.964;7.982;2023-02-12T01:48:16;98540.41;;;-1.31;84.60
47366;BME280;33105;47.964;7.982;2023-02-12T01:51:19;98539.69;;;-1.33;85.38
47366;BME280;33105;47.964;7.982;2023-02-12T01:54:22;98538.00;;;-1.44;84.81
47366;BME280;33105;47.964;7.982;2023-02-12T01:57:27;98538.31;;;-1.56;85.48
47366;BME280;33105;47.964;7.982;2023-02-12T02:00:31;98534.09;;;-1.49;84.61
47366;BME280;33105;47.964;7.982;2023-02-12T02:03:35;98535.50;;;-1.64;84.77
47366;BME280;33105;47.964;7.982;2023-02-12T02:06:45;98534.50;;;-1.92;85.48
47366;BME280;33105;47.964;7.982;2023-02-12T02:09:49;98534.38;;;-2.00;85.94
47366;BME280;33105;47.964;7.982;2023-02-12T02:12:50;98535.22;;;-2.00;85.30
47366;BME280;33105;47.964;7.982;2023-02-12T02:16:19;98539.44;;;-2.07;85.15
47366;BME280;33105;47.964;7.982;2023-02-12T02:19:41;98527.31;;;-2.01;84.78
47366;BME280;33105;47.964;7.982;2023-02-12T02:29:20;98532.25;;;-2.07;84.83
47366;BME280;33105;47.964;7.982;2023-02-12T02:32:30;98536.91;;;-2.09;84.42
47366;BME280;33105;47.964;7.982;2023-02-12T02:38:45;98540.41;;;-2.18;84.51
47366;BME280;33105;47.964;7.982;2023-02-12T02:41:56;98540.97;;;-2.14;85.00
47366;BME280;33105;47.964;7.982;2023-02-12T02:45:05;98536.03;;;-2.19;85.60
47366;BME280;33105;47.964;7.982;2023-02-12T02:48:25;98536.44;;;-2.33;85.03
47366;BME280;33105;47.964;7.982;2023-02-12T02:51:33;98543.22;;;-2.19;85.92
47366;BME280;33105;47.964;7.982;2023-02-12T02:54:43;98537.72;;;-2.18;85.07
47366;BME280;33105;47.964;7.982;2023-02-12T02:57:54;98542.91;;;-2.35;85.65
47366;BME280;33105;47.964;7.982;2023-02-12T03:01:11;98541.50;;;-2.30;85.59
47366;BME280;33105;47.964;7.982;2023-02-12T03:04:20;98545.88;;;-2.29;85.92
47366;BME280;33105;47.964;7.982;2023-02-12T03:07:27;98539.09;;;-2.33;85.71
47366;BME280;33105;47.964;7.982;2023-02-12T03:10:36;98536.97;;;-2.49;86.35
47366;BME280;33105;47.964;7.982;2023-02-12T03:17:00;98532.59;;;-2.40;86.73
47366;BME280;33105;47.964;7.982;2023-02-12T03:20:12;98539.78;;;-2.41;86.59
47366;BME280;33105;47.964;7.982;2023-02-12T03:23:24;98542.78;;;-2.34;87.02
47366;BME280;33105;47.964;7.982;2023-02-12T03:27:02;98547.94;;;-2.42;86.65
47366;BME280;33105;47.964;7.982;2023-02-12T03:30:06;98537.72;;;-2.27;86.71
47366;BME280;33105;47.964;7.982;2023-02-12T03:33:17;98538.00;;;-2.30;87.77
47366;BME280;33105;47.964;7.982;2023-02-12T03:36:56;98536.28;;;-2.22;87.96
47366;BME280;33105;47.964;7.982;2023-02-12T03:43:21;98529.84;;;-1.90;87.37
47366;BME280;33105;47.964;7.982;2023-02-12T03:46:41;98539.72;;;-2.00;87.58
47366;BME280;33105;47.964;7.982;2023-02-12T03:50:09;98530.00;;;-1.92;87.21
47366;BME280;33105;47.964;7.982;2023-02-12T03:53:14;98526.19;;;-1.89;86.93
47366;BME280;33105;47.964;7.982;2023-02-12T03:56:19;98525.63;;;-1.93;87.51
47366;BME280;33105;47.964;7.982;2023-02-12T03:59:24;98530.56;;;-1.88;87.10
47366;BME280;33105;47.964;7.982;2023-02-12T04:02:25;98533.53;;;-1.82;86.88
47366;BME280;33105;47.964;7.982;2023-02-12T04:05:27;98540.56;;;-1.90;87.43
47366;BME280;33105;47.964;7.982;2023-02-12T04:08:29;98532.69;;;-1.82;88.21
47366;BME280;33105;47.964;7.982;2023-02-12T04:15:25;98550.13;;;-1.97;88.27
47366;BME280;33105;47.964;7.982;2023-02-12T04:18:26;98552.81;;;-1.97;88.55
47366;BME280;33105;47.964;7.982;2023-02-12T04:22:06;98556.34;;;-1.97;88.49
47366;BME280;33105;47.964;7.982;2023-02-12T04:28:22;98558.31;;;-2.09;88.90
47366;BME280;33105;47.964;7.982;2023-02-12T04:34:38;98556.19;;;-2.24;90.33
47366;BME280;33105;47.964;7.982;2023-02-12T04:37:47;98555.50;;;-2.07;89.39
47366;BME280;33105;47.964;7.982;2023-02-12T04:40:51;98557.97;;;-2.34;91.05
47366;BME280;33105;47.964;7.982;2023-02-12T04:43:52;98559.75;;;-2.04;89.62
47366;BME280;33105;47.964;7.982;2023-02-12T04:46:53;98567.06;;;-1.87;89.54
47366;BME280;33105;47.964;7.982;2023-02-12T04:49:55;98560.56;;;-1.94;89.02
47366;BME280;33105;47.964;7.982;2023-02-12T04:52:56;98554.66;;;-2.08;90.30
47366;BME280;33105;47.964;7.982;2023-02-12T04:55:57;98557.63;;;-1.91;90.42
47366;BME280;33105;47.964;7.982;2023-02-12T04:58:58;98546.38;;;-1.76;90.15
47366;BME280;33105;47.964;7.982;2023-02-12T05:01:59;98548.75;;;-1.73;89.87
47366;BME280;33105;47.964;7.982;2023-02-12T05:05:00;98540.56;;;-1.71;90.71
47366;BME280;33105;47.964;7.982;2023-02-12T05:08:01;98543.81;;;-1.67;89.96
47366;BME280;33105;47.964;7.982;2023-02-12T05:11:08;98535.78;;;-1.67;90.70
47366;BME280;33105;47.964;7.982;2023-02-12T05:14:10;98535.06;;;-1.60;90.32
47366;BME280;33105;47.964;7.982;2023-02-12T05:17:11;98532.94;;;-1.47;91.62
47366;BME280;33105;47.964;7.982;2023-02-12T05:20:13;98531.22;;;-1.38;89.54
47366;BME280;33105;47.964;7.982;2023-02-12T05:23:14;98535.75;;;-1.39;90.01
47366;BME280;33105;47.964;7.982;2023-02-12T05:26:18;98535.47;;;-1.45;89.59
47366;BME280;33105;47.964;7.982;2023-02-12T05:29:19;98530.13;;;-1.55;89.96
47366;BME280;33105;47.964;7.982;2023-02-12T05:32:22;98530.41;;;-1.58;89.49
47366;BME280;33105;47.964;7.982;2023-02-12T05:35:23;98533.66;;;-1.54;89.52
47366;BME280;33105;47.964;7.982;2023-02-12T05:38:24;98539.69;;;-1.43;90.21
47366;BME280;33105;47.964;7.982;2023-02-12T05:41:26;98534.63;;;-1.36;89.64
47366;BME280;33105;47.964;7.982;2023-02-12T05:44:27;98536.47;;;-1.37;89.93
47366;BME280;33105;47.964;7.982;2023-02-12T05:47:28;98520.78;;;-1.31;89.59
47366;BME280;33105;47.964;7.982;2023-02-12T05:50:29;98527.84;;;-1.30;89.67
47366;BME280;33105;47.964;7.982;2023-02-12T05:53:35;98525.81;;;-1.19;90.39
47366;BME280;33105;47.964;7.982;2023-02-12T05:56:41;98525.53;;;-1.16;89.74
47366;BME280;33105;47.964;7.982;2023-02-12T05:59:43;98521.72;;;-1.13;89.67
47366;BME280;33105;47.964;7.982;2023-02-12T06:02:44;98514.75;;;-0.96;90.62
47366;BME280;33105;47.964;7.982;2023-02-12T06:05:49;98516.19;;;-1.02;89.41
47366;BME280;33105;47.964;7.982;2023-02-12T06:08:51;98513.38;;;-1.00;89.37
47366;BME280;33105;47.964;7.982;2023-02-12T06:11:52;98512.06;;;-0.96;89.57
47366;BME280;33105;47.964;7.982;2023-02-12T06:14:54;98510.69;;;-1.00;90.17
47366;BME280;33105;47.964;7.982;2023-02-12T06:17:55;98514.75;;;-0.96;88.91
47366;BME280;33105;47.964;7.982;2023-02-12T06:20:56;98514.22;;;-1.00;88.73
47366;BME280;33105;47.964;7.982;2023-02-12T06:23:57;98512.22;;;-0.98;88.88
47366;BME280;33105;47.964;7.982;2023-02-12T06:26:59;98513.06;;;-0.97;88.65
47366;BME280;33105;47.964;7.982;2023-02-12T06:30:00;98511.97;;;-1.05;89.56
47366;BME280;33105;47.964;7.982;2023-02-12T06:33:01;98512.81;;;-1.04;89.21
47366;BME280;33105;47.964;7.982;2023-02-12T06:36:03;98511.56;;;-1.10;89.39
47366;BME280;33105;47.964;7.982;2023-02-12T06:39:05;98521.56;;;-1.02;89.29
47366;BME280;33105;47.964;7.982;2023-02-12T06:42:07;98517.19;;;-1.03;88.92
47366;BME280;33105;47.964;7.982;2023-02-12T06:45:08;98515.34;;;-1.02;88.71
47366;BME280;33105;47.964;7.982;2023-02-12T06:48:09;98518.75;;;-1.00;88.81
47366;BME280;33105;47.964;7.982;2023-02-12T06:51:16;98520.75;;;-1.12;90.13
47366;BME280;33105;47.964;7.982;2023-02-12T06:54:18;98517.94;;;-1.20;89.99
47366;BME280;33105;47.964;7.982;2023-02-12T06:57:19;98519.03;;;-1.13;88.92
47366;BME280;33105;47.964;7.982;2023-02-12T07:00:21;98521.59;;;-1.12;89.09
47366;BME280;33105;47.964;7.982;2023-02-12T07:03:22;98525.66;;;-1.08;90.39
47366;BME280;33105;47.964;7.982;2023-02-12T07:06:25;98527.06;;;-1.04;89.34
47366;BME280;33105;47.964;7.982;2023-02-12T07:09:26;98529.19;;;-1.07;90.73
47366;BME280;33105;47.964;7.982;2023-02-12T07:12:28;98522.09;;;-0.98;90.17
47366;BME280;33105;47.964;7.982;2023-02-12T07:15:29;98520.66;;;-0.93;89.69
47366;BME280;33105;47.964;7.982;2023-02-12T07:18:30;98529.63;;;-1.02;90.33
47366;BME280;33105;47.964;7.982;2023-02-12T07:21:32;98529.84;;;-0.86;90.90
47366;BME280;33105;47.964;7.982;2023-02-12T07:24:33;98538.44;;;-0.82;89.76
47366;BME280;33105;47.964;7.982;2023-02-12T07:27:36;98528.00;;;-0.95;90.77
47366;BME280;33105;47.964;7.982;2023-02-12T07:30:37;98529.72;;;-0.94;90.84
47366;BME280;33105;47.964;7.982;2023-02-12T07:33:39;98529.13;;;-0.88;91.06
47366;BME280;33105;47.964;7.982;2023-02-12T07:36:40;98534.75;;;-0.81;90.19
47366;BME280;33105;47.964;7.982;2023-02-12T07:39:42;98528.69;;;-0.83;91.29
47366;BME280;33105;47.964;7.982;2023-02-12T07:42:43;98527.41;;;-0.79;89.31
47366;BME280;33105;47.964;7.982;2023-02-12T07:45:44;98530.19;;;-0.71;89.17
47366;BME280;33105;47.964;7.982;2023-02-12T07:48:45;98528.06;;;-0.68;89.42
47366;BME280;33105;47.964;7.982;2023-02-12T07:51:48;98532.97;;;-0.63;88.97
47366;BME280;33105;47.964;7.982;2023-02-12T07:54:49;98525.75;;;-0.53;90.28
47366;BME280;33105;47.964;7.982;2023-02-12T07:58:03;98524.59;;;-0.50;91.27
47366;BME280;33105;47.964;7.982;2023-02-12T08:01:22;98533.31;;;-0.48;88.69
47366;BME280;33105;47.964;7.982;2023-02-12T08:04:24;98517.75;;;-0.45;89.71
47366;BME280;33105;47.964;7.982;2023-02-12T08:07:25;98521.06;;;-0.51;89.29
47366;BME280;33105;47.964;7.982;2023-02-12T08:10:27;98536.41;;;-0.43;88.86
47366;BME280;33105;47.964;7.982;2023-02-12T08:13:28;98541.34;;;-0.39;89.05
47366;BME280;33105;47.964;7.982;2023-02-12T08:16:30;98539.34;;;-0.37;88.77
47366;BME280;33105;47.964;7.982;2023-02-12T08:19:31;98542.59;;;-0.33;88.33
47366;BME280;33105;47.964;7.982;2023-02-12T08:22:33;98548.22;;;-0.26;88.11
47366;BME280;33105;47.964;7.982;2023-02-12T08:25:34;98540.22;;;-0.18;85.57
47366;BME280;33105;47.964;7.982;2023-02-12T08:28:36;98543.25;;;-0.04;85.70
47366;BME280;33105;47.964;7.982;2023-02-12T08:31:41;98541.94;;;0.00;86.47
47366;BME280;33105;47.964;7.982;2023-02-12T08:34:43;98541.34;;;0.07;85.67
47366;BME280;33105;47.964;7.982;2023-02-12T08:37:44;98541.53;;;0.23;85.72
47366;BME280;33105;47.964;7.982;2023-02-12T08:40:45;98545.25;;;0.30;85.00
47366;BME280;33105;47.964;7.982;2023-02-12T08:43:47;98542.28;;;0.33;83.23
47366;BME280;33105;47.964;7.982;2023-02-12T08:46:50;98539.91;;;0.48;82.79
47366;BME280;33105;47.964;7.982;2023-02-12T08:49:52;98537.25;;;0.56;82.46
47366;BME280;33105;47.964;7.982;2023-02-12T08:52:53;98541.34;;;0.60;82.93
47366;BME280;33105;47.964;7.982;2023-02-12T08:55:54;98540.63;;;0.58;82.28
47366;BME280;33105;47.964;7.982;2023-02-12T08:58:56;98535.03;;;0.69;80.94
47366;BME280;33105;47.964;7.982;2023-02-12T09:01:58;98527.50;;;0.73;81.36
47366;BME280;33105;47.964;7.982;2023-02-12T09:05:00;98531.50;;;0.94;80.33
47366;BME280;33105;47.964;7.982;2023-02-12T09:08:02;98531.59;;;1.11;79.72
47366;BME280;33105;47.964;7.982;2023-02-12T09:11:05;98532.53;;;1.01;80.21
47366;BME280;33105;47.964;7.982;2023-02-12T09:14:10;98521.28;;;0.98;80.42
47366;BME280;33105;47.964;7.982;2023-02-12T09:17:11;98514.66;;;1.18;78.21
47366;BME280;33105;47.964;7.982;2023-02-12T09:20:12;98514.81;;;1.17;79.13
47366;BME280;33105;47.964;7.982;2023-02-12T09:23:14;98522.00;;;1.08;80.49
47366;BME280;33105;47.964;7.982;2023-02-12T09:26:18;98522.91;;;1.17;81.54
47366;BME280;33105;47.964;7.982;2023-02-12T09:29:22;98510.19;;;1.35;82.63
47366;BME280;33105;47.964;7.982;2023-02-12T09:32:34;98507.56;;;1.51;83.10
47366;BME280;33105;47.964;7.982;2023-02-12T09:36:13;98495.00;;;1.60;83.64
47366;BME280;33105;47.964;7.982;2023-02-12T09:39:15;98500.25;;;1.69;83.85
47366;BME280;33105;47.964;7.982;2023-02-12T09:42:44;98509.56;;;1.99;82.72
47366;BME280;33105;47.964;7.982;2023-02-12T09:53:00;98504.59;;;2.53;81.39
47366;BME280;33105;47.964;7.982;2023-02-12T09:56:02;98499.84;;;2.80;81.24
47366;BME280;33105;47.964;7.982;2023-02-12T09:59:06;98498.84;;;2.89;80.06
47366;BME280;33105;47.964;7.982;2023-02-12T10:02:13;98498.66;;;2.98;79.30
47366;BME280;33105;47.964;7.982;2023-02-12T10:05:18;98492.03;;;3.17;78.86
47366;BME280;33105;47.964;7.982;2023-02-12T10:08:49;98479.84;;;3.29;79.51
47366;BME280;33105;47.964;7.982;2023-02-12T10:28:24;98479.44;;;4.56;72.49
47366;BME280;33105;47.964;7.982;2023-02-12T10:31:40;98479.81;;;4.53;73.30
47366;BME280;33105;47.964;7.982;2023-02-12T10:34:43;98485.03;;;4.55;73.23
47366;BME280;33105;47.964;7.982;2023-02-12T10:38:03;98487.50;;;4.64;73.25
47366;BME280;33105;47.964;7.982;2023-02-12T10:41:12;98480.63;;;4.76;72.55
47366;BME280;33105;47.964;7.982;2023-02-12T10:44:16;98477.53;;;4.65;73.67
47366;BME280;33105;47.964;7.982;2023-02-12T10:47:22;98477.38;;;4.81;71.83
47366;BME280;33105;47.964;7.982;2023-02-12T10:50:44;98474.19;;;4.77;71.35
47366;BME280;33105;47.964;7.982;2023-02-12T10:53:49;98474.41;;;4.91;70.50
47366;BME280;33105;47.964;7.982;2023-02-12T10:56:51;98473.94;;;4.87;70.24
47366;BME280;33105;47.964;7.982;2023-02-12T10:59:55;98463.84;;;4.96;70.40
47366;BME280;33105;47.964;7.982;2023-02-12T11:03:20;98470.94;;;4.97;70.29
47366;BME280;33105;47.964;7.982;2023-02-12T11:06:25;98469.75;;;5.14;69.28
47366;BME280;33105;47.964;7.982;2023-02-12T11:09:40;98459.47;;;5.09;69.48
47366;BME280;33105;47.964;7.982;2023-02-12T11:12:46;98455.00;;;5.17;69.66
47366;BME280;33105;47.964;7.982;2023-02-12T11:15:50;98458.94;;;5.14;70.25
47366;BME280;33105;47.964;7.982;2023-02-12T11:18:57;98456.22;;;5.29;69.11
47366;BME280;33105;47.964;7.982;2023-02-12T11:25:14;98443.50;;;5.59;69.17
47366;BME280;33105;47.964;7.982;2023-02-12T11:28:18;98444.03;;;5.69;68.98
47366;BME280;33105;47.964;7.982;2023-02-12T11:31:25;98441.75;;;5.72;67.86
47366;BME280;33105;47.964;7.982;2023-02-12T11:34:27;98443.72;;;5.78;68.86
47366;BME280;33105;47.964;7.982;2023-02-12T11:37:31;98434.47;;;5.88;67.98
47366;BME280;33105;47.964;7.982;2023-02-12T11:40:34;98436.03;;;5.97;67.79
47366;BME280;33105;47.964;7.982;2023-02-12T11:43:38;98424.34;;;5.96;66.69
47366;BME280;33105;47.964;7.982;2023-02-12T11:46:49;98432.31;;;5.83;67.89
47366;BME280;33105;47.964;7.982;2023-02-12T11:50:04;98427.66;;;5.92;67.16
47366;BME280;33105;47.964;7.982;2023-02-12T11:53:08;98423.97;;;5.99;68.02
47366;BME280;33105;47.964;7.982;2023-02-12T11:56:13;98421.06;;;6.22;66.85
47366;BME280;33105;47.964;7.982;2023-02-12T11:59:35;98414.56;;;6.17;66.92
47366;BME280;33105;47.964;7.982;2023-02-12T12:02:44;98408.09;;;6.18;66.88
47366;BME280;33105;47.964;7.982;2023-02-12T12:05:51;98404.66;;;6.30;66.24
47366;BME280;33105;47.964;7.982;2023-02-12T12:09:20;98403.44;;;6.33;66.28
47366;BME280;33105;47.964;7.982;2023-02-12T12:15:39;98402.59;;;6.32;66.08
47366;BME280;33105;47.964;7.982;2023-02-12T12:19:26;98406.03;;;6.41;66.47
47366;BME280;33105;47.964;7.982;2023-02-12T12:22:59;98398.72;;;6.41;66.38
47366;BME280;33105;47.964;7.982;2023-02-12T12:26:13;98396.94;;;6.55;65.17
47366;BME280;33105;47.964;7.982;2023-02-12T12:29:23;98389.53;;;6.70;65.84
47366;BME280;33105;47.964;7.982;2023-02-12T12:32:29;98392.75;;;6.80;65.14
47366;BME280;33105;47.964;7.982;2023-02-12T12:36:08;98386.53;;;6.87;63.76
47366;BME280;33105;47.964;7.982;2023-02-12T13:06:26;98376.38;;;7.02;63.99
47366;BME280;33105;47.964;7.982;2023-02-12T13:19:13;98379.47;;;7.33;63.11
47366;BME280;33105;47.964;7.982;2023-02-12T13:26:03;98373.69;;;7.49;64.03
47366;BME280;33105;47.964;7.982;2023-02-12T13:29:20;98365.81;;;7.68;64.20
47366;BME280;33105;47.964;7.982;2023-02-12T13:35:29;98363.72;;;7.63;64.68
47366;BME280;33105;47.964;7.982;2023-02-12T13:43:04;98353.13;;;7.88;63.18
47366;BME280;33105;47.964;7.982;2023-02-12T13:52:36;98339.97;;;8.11;62.44
47366;BME280;33105;47.964;7.982;2023-02-12T14:05:38;98334.31;;;8.06;62.96
47366;BME280;33105;47.964;7.982;2023-02-12T14:08:41;98332.03;;;8.16;63.10
47366;BME280;33105;47.964;7.982;2023-02-12T14:11:50;98330.94;;;8.17;63.26
47366;BME280;33105;47.964;7.982;2023-02-12T14:14:55;98333.69;;;8.31;62.70
47366;BME280;33105;47.964;7.982;2023-02-12T14:18:20;98330.72;;;7.99;63.33
47366;BME280;33105;47.964;7.982;2023-02-12T14:21:33;98325.50;;;8.04;63.89
47366;BME280;33105;47.964;7.982;2023-02-12T14:30:41;98330.75;;;8.12;64.15
47366;BME280;33105;47.964;7.982;2023-02-12T14:37:15;98320.47;;;8.01;64.24
47366;BME280;33105;47.964;7.982;2023-02-12T14:40:40;98327.38;;;7.97;64.17
47366;BME280;33105;47.964;7.982;2023-02-12T14:43:43;98315.03;;;8.01;64.22
47366;BME280;33105;47.964;7.982;2023-02-12T14:50:40;98326.31;;;7.98;65.49
47366;BME280;33105;47.964;7.982;2023-02-12T14:53:46;98314.81;;;7.96;64.84
47366;BME280;33105;47.964;7.982;2023-02-12T14:56:49;98318.19;;;8.11;65.08
47366;BME280;33105;47.964;7.982;2023-02-12T14:59:54;98324.69;;;8.24;64.63
47366;BME280;33105;47.964;7.982;2023-02-12T15:03:06;98321.75;;;8.25;64.59
47366;BME280;33105;47.964;7.982;2023-02-12T15:06:23;98326.78;;;8.22;65.09
47366;BME280;33105;47.964;7.982;2023-02-12T15:09:54;98328.88;;;8.26;64.89
47366;BME280;33105;47.964;7.982;2023-02-12T15:16:06;98333.88;;;8.23;64.55
47366;BME280;33105;47.964;7.982;2023-02-12T15:19:25;98330.75;;;8.06;65.57
47366;BME280;33105;47.964;7.982;2023-02-12T15:22:34;98339.53;;;8.01;66.24
47366;BME280;33105;47.964;7.982;2023-02-12T15:25:40;98336.59;;;8.03;66.33
47366;BME280;33105;47.964;7.982;2023-02-12T15:28:45;98348.31;;;7.97;66.99
47366;BME280;33105;47.964;7.982;2023-02-12T15:32:07;98348.50;;;7.82;67.35
47366;BME280;33105;47.964;7.982;2023-02-12T15:35:21;98351.16;;;7.69;68.39
47366;BME280;33105;47.964;7.982;2023-02-12T15:38:33;98356.78;;;7.54;68.82
47366;BME280;33105;47.964;7.982;2023-02-12T15:41:38;98359.03;;;7.37;69.38
47366;BME280;33105;47.964;7.982;2023-02-12T15:44:40;98367.19;;;7.03;71.27
47366;BME280;33105;47.964;7.982;2023-02-12T15:47:43;98362.84;;;7.08;71.02
47366;BME280;33105;47.964;7.982;2023-02-12T15:50:50;98371.00;;;7.08;71.17
47366;BME280;33105;47.964;7.982;2023-02-12T15:53:54;98358.78;;;6.63;72.11
47366;BME280;33105;47.964;7.982;2023-02-12T15:56:56;98362.34;;;6.36;72.95
47366;BME280;33105;47.964;7.982;2023-02-12T16:00:05;98360.69;;;6.13;73.95
47366;BME280;33105;47.964;7.982;2023-02-12T16:03:32;98356.19;;;5.85;74.40
47366;BME280;33105;47.964;7.982;2023-02-12T16:06:35;98372.09;;;5.73;75.36
47366;BME280;33105;47.964;7.982;2023-02-12T16:09:41;98367.69;;;5.51;75.83
47366;BME280;33105;47.964;7.982;2023-02-12T16:12:43;98366.00;;;5.50;75.80
47366;BME280;33105;47.964;7.982;2023-02-12T16:15:45;98370.56;;;5.13;76.14
47366;BME280;33105;47.964;7.982;2023-02-12T16:22:06;98369.16;;;4.88;77.40
47366;BME280;33105;47.964;7.982;2023-02-12T16:28:27;98358.59;;;4.63;78.05
47366;BME280;33105;47.964;7.982;2023-02-12T16:31:30;98368.13;;;4.59;78.46
47366;BME280;33105;47.964;7.982;2023-02-12T16:34:35;98362.09;;;4.34;79.41
47366;BME280;33105;47.964;7.982;2023-02-12T16:40:39;98364.13;;;4.18;79.99
47366;BME280;33105;47.964;7.982;2023-02-12T16:43:41;98371.63;;;4.07;80.44
47366;BME280;33105;47.964;7.982;2023-02-12T16:46:50;98371.16;;;4.04;80.61
47366;BME280;33105;47.964;7.982;2023-02-12T16:49:58;98373.84;;;4.04;81.03
47366;BME280;33105;47.964;7.982;2023-02-12T16:53:22;98372.81;;;4.05;80.38
47366;BME280;33105;47.964;7.982;2023-02-12T16:56:29;98382.63;;;3.83;81.50
47366;BME280;33105;47.964;7.982;2023-02-12T16:59:34;98378.56;;;3.56;82.15
47366;BME280;33105;47.964;7.982;2023-02-12T17:02:37;98380.47;;;3.48;83.23
47366;BME280;33105;47.964;7.982;2023-02-12T17:05:39;98378.63;;;3.48;82.67
47366;BME280;33105;47.964;7.982;2023-02-12T17:08:43;98376.88;;;3.55;82.43
47366;BME280;33105;47.964;7.982;2023-02-12T17:11:44;98385.97;;;3.31;83.04
47366;BME280;33105;47.964;7.982;2023-02-12T17:14:48;98385.72;;;3.18;83.36
47366;BME280;33105;47.964;7.982;2023-02-12T17:17:51;98384.69;;;3.19;82.92
47366;BME280;33105;47.964;7.982;2023-02-12T17:20:59;98386.09;;;2.99;83.40
47366;BME280;33105;47.964;7.982;2023-02-12T17:24:03;98389.38;;;2.86;83.90
47366;BME280;33105;47.964;7.982;2023-02-12T17:27:05;98389.53;;;2.85;84.47
47366;BME280;33105;47.964;7.982;2023-02-12T17:30:14;98391.03;;;2.87;85.43
47366;BME280;33105;47.964;7.982;2023-02-12T17:33:16;98387.69;;;2.77;85.92
47366;BME280;33105;47.964;7.982;2023-02-12T17:36:17;98381.59;;;2.83;85.18
47366;BME280;33105;47.964;7.982;2023-02-12T17:39:19;98389.25;;;2.55;86.45
47366;BME280;33105;47.964;7.982;2023-02-12T17:42:21;98387.59;;;2.38;86.61
47366;BME280;33105;47.964;7.982;2023-02-12T17:45:23;98381.66;;;2.59;86.28
47366;BME280;33105;47.964;7.982;2023-02-12T17:48:24;98383.91;;;2.39;86.88
47366;BME280;33105;47.964;7.982;2023-02-12T17:51:26;98388.63;;;2.45;87.06
47366;BME280;33105;47.964;7.982;2023-02-12T17:54:28;98391.66;;;2.34;86.75
47366;BME280;33105;47.964;7.982;2023-02-12T17:57:30;98390.50;;;2.20;87.64
47366;BME280;33105;47.964;7.982;2023-02-12T18:00:32;98393.84;;;1.90;87.71
47366;BME280;33105;47.964;7.982;2023-02-12T18:03:33;98384.59;;;1.92;87.94
47366;BME280;33105;47.964;7.982;2023-02-12T18:06:36;98386.44;;;2.00;87.99
47366;BME280;33105;47.964;7.982;2023-02-12T18:09:37;98388.97;;;1.93;88.46
47366;BME280;33105;47.964;7.982;2023-02-12T18:12:40;98390.13;;;1.75;88.71
47366;BME280;33105;47.964;7.982;2023-02-12T18:15:41;98393.66;;;1.83;88.74
47366;BME280;33105;47.964;7.982;2023-02-12T18:18:44;98397.22;;;1.92;88.75
47366;BME280;33105;47.964;7.982;2023-02-12T18:21:46;98393.00;;;1.73;89.74
47366;BME280;33105;47.964;7.982;2023-02-12T18:24:48;98401.41;;;1.78;88.68
47366;BME280;33105;47.964;7.982;2023-02-12T18:27:50;98385.06;;;1.63;88.83
47366;BME280;33105;47.964;7.982;2023-02-12T18:30:56;98399.03;;;1.75;89.41
47366;BME280;33105;47.964;7.982;2023-02-12T18:33:57;98397.66;;;1.55;89.93
47366;BME280;33105;47.964;7.982;2023-02-12T18:36:59;98394.34;;;1.69;91.08
47366;BME280;33105;47.964;7.982;2023-02-12T18:40:01;98386.25;;;1.77;89.89
47366;BME280;33105;47.964;7.982;2023-02-12T18:43:02;98385.91;;;1.80;89.81
47366;BME280;33105;47.964;7.982;2023-02-12T18:46:11;98384.91;;;1.65;90.38
47366;BME280;33105;47.964;7.982;2023-02-12T18:49:14;98383.91;;;1.66;90.72
47366;BME280;33105;47.964;7.982;2023-02-12T18:52:17;98384.22;;;1.79;89.94
47366;BME280;33105;47.964;7.982;2023-02-12T18:55:19;98383.25;;;1.72;90.42
47366;BME280;33105;47.964;7.982;2023-02-12T18:58:21;98385.75;;;1.65;90.81
47366;BME280;33105;47.964;7.982;2023-02-12T19:01:23;98385.53;;;1.51;91.03